sensor_id;sensor_type;location;lat;lon;timestamp;P1;durP1;ratioP1;P2;durP2;ratioP2
7320;SDS011;3701;49.346;8.798;2022-07-29T00:02:20;5.07;;;2.90;;
7320;SDS011;3701;49.346;8.798;2022-07-29T00:04:46;6.83;;;3.47;;
7320;SDS011;3701;49.346;8.798;2022-07-29T00:07:11;8.70;;;3.73;;
7320;SDS011;3701;49.346;8.798;2022-07-29T00:09:39;4.67;;;3.83;;
7320;SDS011;3701;49.346;8.798;2022-07-29T00:12:04;6.47;;;3.10;;
7320;SDS011;3701;49.346;8.798;2022-07-29T00:14:30;4.77;;;3.63;;
7320;SDS011;3701;49.346;8.798;2022-07-29T00:16:55;6.37;;;3.57;;
7320;SDS011;3701;49.346;8.798;2022-07-29T00:19:24;5.60;;;3.10;;
7320;SDS011;3701;49.346;8.798;2022-07-29T00:21:49;8.13;;;3.27;;
7320;SDS011;3701;49.346;8.798;2022-07-29T00:24:14;3.83;;;3.47;;
7320;SDS011;3701;49.346;8.798;2022-07-29T00:26:39;5.83;;;2.73;;
7320;SDS011;3701;49.346;8.798;2022-07-29T00:29:07;3.90;;;2.90;;
7320;SDS011;3701;49.346;8.798;2022-07-29T00:31:34;5.90;;;3.63;;
7320;SDS011;3701;49.346;8.798;2022-07-29T00:34:02;8.03;;;3.53;;
7320;SDS011;3701;49.346;8.798;2022-07-29T00:36:33;4.50;;;3.97;;
7320;SDS011;3701;49.346;8.798;2022-07-29T00:38:58;4.60;;;3.30;;
7320;SDS011;3701;49.346;8.798;2022-07-29T00:41:28;7.97;;;3.27;;
7320;SDS011;3701;49.346;8.798;2022-07-29T00:43:58;4.87;;;3.63;;
7320;SDS011;3701;49.346;8.798;2022-07-29T00:46:28;5.07;;;3.37;;
7320;SDS011;3701;49.346;8.798;2022-07-29T00:48:54;9.33;;;3.43;;
7320;SDS011;3701;49.346;8.798;2022-07-29T00:51:19;3.80;;;3.27;;
7320;SDS011;3701;49.346;8.798;2022-07-29T00:53:44;3.60;;;3.30;;
7320;SDS011;3701;49.346;8.798;2022-07-29T00:56:15;5.57;;;3.67;;
7320;SDS011;3701;49.346;8.798;2022-07-29T00:58:41;5.40;;;3.80;;
7320;SDS011;3701;49.346;8.798;2022-07-29T01:01:10;3.53;;;3.00;;
7320;SDS011;3701;49.346;8.798;2022-07-29T01:03:37;4.60;;;3.47;;
7320;SDS011;3701;49.346;8.798;2022-07-29T01:06:03;7.30;;;4.03;;
7320;SDS011;3701;49.346;8.798;2022-07-29T01:08:29;5.53;;;3.27;;
7320;SDS011;3701;49.346;8.798;2022-07-29T01:10:59;6.73;;;3.67;;
7320;SDS011;3701;49.346;8.798;2022-07-29T01:13:26;6.53;;;3.50;;
7320;SDS011;3701;49.346;8.798;2022-07-29T01:15:59;3.90;;;3.50;;
7320;SDS011;3701;49.346;8.798;2022-07-29T01:18:30;4.60;;;3.47;;
7320;SDS011;3701;49.346;8.798;2022-07-29T01:31:54;6.33;;;4.20;;
7320;SDS011;3701;49.346;8.798;2022-07-29T01:34:43;6.23;;;4.63;;
7320;SDS011;3701;49.346;8.798;2022-07-29T01:39:44;7.87;;;4.17;;
7320;SDS011;3701;49.346;8.798;2022-07-29T01:42:31;4.37;;;3.70;;
7320;SDS011;3701;49.346;8.798;2022-07-29T01:47:43;7.23;;;3.83;;
7320;SDS011;3701;49.346;8.798;2022-07-29T01:50:17;4.93;;;3.80;;
7320;SDS011;3701;49.346;8.798;2022-07-29T01:52:52;5.70;;;4.50;;
7320;SDS011;3701;49.346;8.798;2022-07-29T01:55:27;9.33;;;4.40;;
7320;SDS011;3701;49.346;8.798;2022-07-29T01:57:56;5.00;;;4.50;;
7320;SDS011;3701;49.346;8.798;2022-07-29T02:00:26;4.93;;;4.47;;
7320;SDS011;3701;49.346;8.798;2022-07-29T02:02:52;5.40;;;4.37;;
7320;SDS011;3701;49.346;8.798;2022-07-29T02:05:20;8.87;;;4.27;;
7320;SDS011;3701;49.346;8.798;2022-07-29T02:07:49;8.20;;;4.37;;
7320;SDS011;3701;49.346;8.798;2022-07-29T02:10:19;7.50;;;4.60;;
7320;SDS011;3701;49.346;8.798;2022-07-29T02:12:50;4.73;;;4.33;;
7320;SDS011;3701;49.346;8.798;2022-07-29T02:15:17;5.93;;;4.33;;
7320;SDS011;3701;49.346;8.798;2022-07-29T02:17:45;11.63;;;5.43;;
7320;SDS011;3701;49.346;8.798;2022-07-29T02:20:33;6.47;;;4.20;;
7320;SDS011;3701;49.346;8.798;2022-07-29T02:23:02;5.90;;;4.57;;
7320;SDS011;3701;49.346;8.798;2022-07-29T02:25:32;4.90;;;4.43;;
7320;SDS011;3701;49.346;8.798;2022-07-29T02:27:57;7.00;;;4.10;;
7320;SDS011;3701;49.346;8.798;2022-07-29T02:30:26;5.20;;;4.70;;
7320;SDS011;3701;49.346;8.798;2022-07-29T02:32:52;5.00;;;4.50;;
7320;SDS011;3701;49.346;8.798;2022-07-29T02:35:21;7.37;;;4.90;;
7320;SDS011;3701;49.346;8.798;2022-07-29T02:37:50;5.63;;;5.00;;
7320;SDS011;3701;49.346;8.798;2022-07-29T02:40:37;6.43;;;4.53;;
7320;SDS011;3701;49.346;8.798;2022-07-29T02:43:07;5.37;;;4.63;;
7320;SDS011;3701;49.346;8.798;2022-07-29T02:45:38;5.00;;;4.50;;
7320;SDS011;3701;49.346;8.798;2022-07-29T02:48:09;4.80;;;4.30;;
7320;SDS011;3701;49.346;8.798;2022-07-29T02:50:40;8.90;;;4.60;;
7320;SDS011;3701;49.346;8.798;2022-07-29T02:53:16;8.50;;;4.50;;
7320;SDS011;3701;49.346;8.798;2022-07-29T02:55:46;8.80;;;5.23;;
7320;SDS011;3701;49.346;8.798;2022-07-29T02:58:25;7.97;;;5.07;;
7320;SDS011;3701;49.346;8.798;2022-07-29T03:00:57;5.50;;;4.80;;
7320;SDS011;3701;49.346;8.798;2022-07-29T03:03:27;6.37;;;4.77;;
7320;SDS011;3701;49.346;8.798;2022-07-29T03:05:59;5.03;;;4.50;;
7320;SDS011;3701;49.346;8.798;2022-07-29T03:08:31;10.87;;;4.83;;
7320;SDS011;3701;49.346;8.798;2022-07-29T03:10:59;5.90;;;4.70;;
7320;SDS011;3701;49.346;8.798;2022-07-29T03:13:26;6.50;;;4.80;;
7320;SDS011;3701;49.346;8.798;2022-07-29T03:15:55;5.43;;;4.90;;
7320;SDS011;3701;49.346;8.798;2022-07-29T03:18:25;12.53;;;4.57;;
7320;SDS011;3701;49.346;8.798;2022-07-29T03:20:54;5.70;;;5.10;;
7320;SDS011;3701;49.346;8.798;2022-07-29T03:23:20;6.37;;;5.00;;
7320;SDS011;3701;49.346;8.798;2022-07-29T03:25:49;6.00;;;4.57;;
7320;SDS011;3701;49.346;8.798;2022-07-29T03:28:17;6.17;;;5.03;;
7320;SDS011;3701;49.346;8.798;2022-07-29T03:30:43;6.73;;;4.60;;
7320;SDS011;3701;49.346;8.798;2022-07-29T03:33:10;5.03;;;4.53;;
7320;SDS011;3701;49.346;8.798;2022-07-29T03:35:38;6.70;;;4.53;;
7320;SDS011;3701;49.346;8.798;2022-07-29T03:38:06;6.87;;;5.00;;
7320;SDS011;3701;49.346;8.798;2022-07-29T03:40:47;6.73;;;4.90;;
7320;SDS011;3701;49.346;8.798;2022-07-29T03:43:20;5.30;;;4.23;;
7320;SDS011;3701;49.346;8.798;2022-07-29T03:45:49;5.40;;;4.90;;
7320;SDS011;3701;49.346;8.798;2022-07-29T03:48:21;5.20;;;4.70;;
7320;SDS011;3701;49.346;8.798;2022-07-29T03:50:49;5.73;;;4.93;;
7320;SDS011;3701;49.346;8.798;2022-07-29T03:53:18;6.10;;;5.47;;
7320;SDS011;3701;49.346;8.798;2022-07-29T03:55:48;5.40;;;4.90;;
7320;SDS011;3701;49.346;8.798;2022-07-29T03:58:17;5.00;;;4.47;;
7320;SDS011;3701;49.346;8.798;2022-07-29T04:00:48;5.30;;;4.80;;
7320;SDS011;3701;49.346;8.798;2022-07-29T04:03:16;6.87;;;4.53;;
7320;SDS011;3701;49.346;8.798;2022-07-29T04:05:42;5.03;;;4.53;;
7320;SDS011;3701;49.346;8.798;2022-07-29T04:08:10;8.30;;;4.90;;
7320;SDS011;3701;49.346;8.798;2022-07-29T04:10:35;5.07;;;4.57;;
7320;SDS011;3701;49.346;8.798;2022-07-29T04:13:00;6.17;;;4.67;;
7320;SDS011;3701;49.346;8.798;2022-07-29T04:15:28;5.57;;;4.83;;
7320;SDS011;3701;49.346;8.798;2022-07-29T04:17:56;9.20;;;4.90;;
7320;SDS011;3701;49.346;8.798;2022-07-29T04:20:21;4.87;;;4.37;;
7320;SDS011;3701;49.346;8.798;2022-07-29T04:22:46;5.73;;;5.10;;
7320;SDS011;3701;49.346;8.798;2022-07-29T04:25:14;6.57;;;4.80;;
7320;SDS011;3701;49.346;8.798;2022-07-29T04:27:40;5.37;;;4.87;;
7320;SDS011;3701;49.346;8.798;2022-07-29T04:30:24;6.00;;;4.30;;
7320;SDS011;3701;49.346;8.798;2022-07-29T04:32:50;4.73;;;4.20;;
7320;SDS011;3701;49.346;8.798;2022-07-29T04:35:15;8.83;;;4.60;;
7320;SDS011;3701;49.346;8.798;2022-07-29T04:37:41;5.83;;;5.10;;
7320;SDS011;3701;49.346;8.798;2022-07-29T04:40:08;11.27;;;4.80;;
7320;SDS011;3701;49.346;8.798;2022-07-29T04:42:36;12.30;;;5.23;;
7320;SDS011;3701;49.346;8.798;2022-07-29T04:45:05;5.93;;;4.70;;
7320;SDS011;3701;49.346;8.798;2022-07-29T04:47:31;5.17;;;4.77;;
7320;SDS011;3701;49.346;8.798;2022-07-29T04:50:03;6.23;;;4.77;;
7320;SDS011;3701;49.346;8.798;2022-07-29T04:52:33;7.03;;;5.23;;
7320;SDS011;3701;49.346;8.798;2022-07-29T04:55:04;7.87;;;5.20;;
7320;SDS011;3701;49.346;8.798;2022-07-29T04:57:30;6.53;;;4.70;;
7320;SDS011;3701;49.346;8.798;2022-07-29T04:59:55;6.07;;;4.83;;
7320;SDS011;3701;49.346;8.798;2022-07-29T05:02:21;6.33;;;4.20;;
7320;SDS011;3701;49.346;8.798;2022-07-29T05:04:46;6.17;;;3.87;;
7320;SDS011;3701;49.346;8.798;2022-07-29T05:07:12;6.23;;;4.27;;
7320;SDS011;3701;49.346;8.798;2022-07-29T05:09:40;4.50;;;4.07;;
7320;SDS011;3701;49.346;8.798;2022-07-29T05:12:06;4.60;;;3.90;;
7320;SDS011;3701;49.346;8.798;2022-07-29T05:14:31;7.07;;;3.50;;
7320;SDS011;3701;49.346;8.798;2022-07-29T05:17:01;4.47;;;4.07;;
7320;SDS011;3701;49.346;8.798;2022-07-29T05:19:28;6.40;;;3.90;;
7320;SDS011;3701;49.346;8.798;2022-07-29T05:21:54;4.17;;;3.60;;
7320;SDS011;3701;49.346;8.798;2022-07-29T05:24:19;9.63;;;4.20;;
7320;SDS011;3701;49.346;8.798;2022-07-29T05:26:44;6.10;;;3.27;;
7320;SDS011;3701;49.346;8.798;2022-07-29T05:29:10;3.67;;;3.37;;
7320;SDS011;3701;49.346;8.798;2022-07-29T05:31:38;6.43;;;3.40;;
7320;SDS011;3701;49.346;8.798;2022-07-29T05:34:05;4.47;;;3.83;;
7320;SDS011;3701;49.346;8.798;2022-07-29T05:36:33;3.73;;;3.20;;
7320;SDS011;3701;49.346;8.798;2022-07-29T05:38:58;5.97;;;3.87;;
7320;SDS011;3701;49.346;8.798;2022-07-29T05:41:26;3.50;;;3.20;;
7320;SDS011;3701;49.346;8.798;2022-07-29T05:43:58;4.00;;;3.07;;
7320;SDS011;3701;49.346;8.798;2022-07-29T05:46:27;4.50;;;2.97;;
7320;SDS011;3701;49.346;8.798;2022-07-29T05:48:52;4.67;;;3.07;;
7320;SDS011;3701;49.346;8.798;2022-07-29T05:51:20;5.23;;;3.33;;
7320;SDS011;3701;49.346;8.798;2022-07-29T05:53:45;5.20;;;3.57;;
7320;SDS011;3701;49.346;8.798;2022-07-29T05:56:11;3.87;;;2.93;;
7320;SDS011;3701;49.346;8.798;2022-07-29T05:58:39;3.70;;;2.90;;
7320;SDS011;3701;49.346;8.798;2022-07-29T06:01:04;4.40;;;3.30;;
7320;SDS011;3701;49.346;8.798;2022-07-29T06:03:32;5.00;;;2.50;;
7320;SDS011;3701;49.346;8.798;2022-07-29T06:05:57;2.93;;;2.60;;
7320;SDS011;3701;49.346;8.798;2022-07-29T06:08:23;2.70;;;2.47;;
7320;SDS011;3701;49.346;8.798;2022-07-29T06:10:48;4.10;;;2.60;;
7320;SDS011;3701;49.346;8.798;2022-07-29T06:13:14;7.00;;;2.80;;
7320;SDS011;3701;49.346;8.798;2022-07-29T06:15:43;3.43;;;2.60;;
7320;SDS011;3701;49.346;8.798;2022-07-29T06:18:11;4.17;;;2.70;;
7320;SDS011;3701;49.346;8.798;2022-07-29T06:20:38;3.80;;;3.07;;
7320;SDS011;3701;49.346;8.798;2022-07-29T06:23:03;7.97;;;3.20;;
7320;SDS011;3701;49.346;8.798;2022-07-29T06:25:33;3.77;;;2.43;;
7320;SDS011;3701;49.346;8.798;2022-07-29T06:28:01;5.53;;;2.97;;
7320;SDS011;3701;49.346;8.798;2022-07-29T06:30:29;4.10;;;3.07;;
7320;SDS011;3701;49.346;8.798;2022-07-29T06:32:55;5.70;;;2.63;;
7320;SDS011;3701;49.346;8.798;2022-07-29T06:35:20;3.83;;;2.70;;
7320;SDS011;3701;49.346;8.798;2022-07-29T06:37:50;2.80;;;2.37;;
7320;SDS011;3701;49.346;8.798;2022-07-29T06:40:18;10.20;;;2.97;;
7320;SDS011;3701;49.346;8.798;2022-07-29T06:43:02;3.10;;;2.50;;
7320;SDS011;3701;49.346;8.798;2022-07-29T06:45:27;2.93;;;2.70;;
7320;SDS011;3701;49.346;8.798;2022-07-29T06:47:52;3.23;;;2.93;;
7320;SDS011;3701;49.346;8.798;2022-07-29T06:50:18;3.03;;;2.60;;
7320;SDS011;3701;49.346;8.798;2022-07-29T06:52:43;3.70;;;2.57;;
7320;SDS011;3701;49.346;8.798;2022-07-29T06:55:09;3.13;;;2.50;;
7320;SDS011;3701;49.346;8.798;2022-07-29T06:57:39;4.17;;;2.70;;
7320;SDS011;3701;49.346;8.798;2022-07-29T07:00:04;6.00;;;2.80;;
7320;SDS011;3701;49.346;8.798;2022-07-29T07:02:33;5.43;;;3.03;;
7320;SDS011;3701;49.346;8.798;2022-07-29T07:04:58;3.90;;;2.60;;
7320;SDS011;3701;49.346;8.798;2022-07-29T07:07:23;4.37;;;2.77;;
7320;SDS011;3701;49.346;8.798;2022-07-29T07:09:51;3.50;;;2.33;;
7320;SDS011;3701;49.346;8.798;2022-07-29T07:12:16;3.60;;;2.63;;
7320;SDS011;3701;49.346;8.798;2022-07-29T07:14:44;5.60;;;2.83;;
7320;SDS011;3701;49.346;8.798;2022-07-29T07:17:09;4.20;;;2.80;;
7320;SDS011;3701;49.346;8.798;2022-07-29T07:19:34;4.00;;;2.57;;
7320;SDS011;3701;49.346;8.798;2022-07-29T07:22:02;5.07;;;3.07;;
7320;SDS011;3701;49.346;8.798;2022-07-29T07:24:28;3.70;;;2.63;;
7320;SDS011;3701;49.346;8.798;2022-07-29T07:26:53;4.40;;;3.07;;
7320;SDS011;3701;49.346;8.798;2022-07-29T07:29:18;5.80;;;2.80;;
7320;SDS011;3701;49.346;8.798;2022-07-29T07:31:44;2.80;;;2.40;;
7320;SDS011;3701;49.346;8.798;2022-07-29T07:34:11;3.93;;;3.53;;
7320;SDS011;3701;49.346;8.798;2022-07-29T07:36:37;4.73;;;3.50;;
7320;SDS011;3701;49.346;8.798;2022-07-29T07:39:04;7.70;;;3.13;;
7320;SDS011;3701;49.346;8.798;2022-07-29T07:41:30;6.10;;;3.30;;
7320;SDS011;3701;49.346;8.798;2022-07-29T07:43:55;5.60;;;2.70;;
7320;SDS011;3701;49.346;8.798;2022-07-29T07:46:21;4.17;;;2.70;;
7320;SDS011;3701;49.346;8.798;2022-07-29T07:48:46;3.33;;;2.97;;
7320;SDS011;3701;49.346;8.798;2022-07-29T07:51:14;7.20;;;3.27;;
7320;SDS011;3701;49.346;8.798;2022-07-29T07:53:39;4.43;;;3.03;;
7320;SDS011;3701;49.346;8.798;2022-07-29T07:56:05;5.13;;;3.37;;
7320;SDS011;3701;49.346;8.798;2022-07-29T07:58:31;5.50;;;2.73;;
7320;SDS011;3701;49.346;8.798;2022-07-29T08:01:00;5.97;;;2.60;;
7320;SDS011;3701;49.346;8.798;2022-07-29T08:03:25;6.07;;;2.77;;
7320;SDS011;3701;49.346;8.798;2022-07-29T08:05:50;6.20;;;3.90;;
7320;SDS011;3701;49.346;8.798;2022-07-29T08:08:19;3.80;;;2.90;;
7320;SDS011;3701;49.346;8.798;2022-07-29T08:10:47;5.80;;;3.60;;
7320;SDS011;3701;49.346;8.798;2022-07-29T08:13:21;3.30;;;3.00;;
7320;SDS011;3701;49.346;8.798;2022-07-29T08:15:52;3.80;;;3.27;;
7320;SDS011;3701;49.346;8.798;2022-07-29T08:18:23;7.30;;;3.30;;
7320;SDS011;3701;49.346;8.798;2022-07-29T08:20:49;5.03;;;3.40;;
7320;SDS011;3701;49.346;8.798;2022-07-29T08:23:15;5.10;;;3.43;;
7320;SDS011;3701;49.346;8.798;2022-07-29T08:25:41;3.30;;;3.00;;
7320;SDS011;3701;49.346;8.798;2022-07-29T08:28:06;4.17;;;3.00;;
7320;SDS011;3701;49.346;8.798;2022-07-29T08:30:35;5.17;;;3.20;;
7320;SDS011;3701;49.346;8.798;2022-07-29T08:33:00;3.93;;;3.07;;
7320;SDS011;3701;49.346;8.798;2022-07-29T08:35:26;5.40;;;3.50;;
7320;SDS011;3701;49.346;8.798;2022-07-29T08:37:52;5.60;;;3.80;;
7320;SDS011;3701;49.346;8.798;2022-07-29T08:40:19;4.60;;;3.40;;
7320;SDS011;3701;49.346;8.798;2022-07-29T08:42:51;3.90;;;2.90;;
7320;SDS011;3701;49.346;8.798;2022-07-29T08:45:19;5.13;;;3.50;;
7320;SDS011;3701;49.346;8.798;2022-07-29T08:47:48;4.00;;;3.03;;
7320;SDS011;3701;49.346;8.798;2022-07-29T08:50:19;5.13;;;3.90;;
7320;SDS011;3701;49.346;8.798;2022-07-29T08:52:45;4.50;;;3.20;;
7320;SDS011;3701;49.346;8.798;2022-07-29T08:55:11;4.27;;;3.47;;
7320;SDS011;3701;49.346;8.798;2022-07-29T08:57:38;4.43;;;3.50;;
7320;SDS011;3701;49.346;8.798;2022-07-29T09:00:05;8.10;;;3.37;;
7320;SDS011;3701;49.346;8.798;2022-07-29T09:02:36;4.20;;;3.50;;
7320;SDS011;3701;49.346;8.798;2022-07-29T09:05:09;7.43;;;3.80;;
7320;SDS011;3701;49.346;8.798;2022-07-29T09:07:35;4.90;;;3.67;;
7320;SDS011;3701;49.346;8.798;2022-07-29T09:10:03;6.00;;;3.50;;
7320;SDS011;3701;49.346;8.798;2022-07-29T09:12:30;6.30;;;4.07;;
7320;SDS011;3701;49.346;8.798;2022-07-29T09:14:55;4.57;;;3.60;;
7320;SDS011;3701;49.346;8.798;2022-07-29T09:17:40;12.23;;;3.83;;
7320;SDS011;3701;49.346;8.798;2022-07-29T09:20:17;7.53;;;3.83;;
7320;SDS011;3701;49.346;8.798;2022-07-29T09:22:44;5.80;;;3.90;;
7320;SDS011;3701;49.346;8.798;2022-07-29T09:25:14;6.40;;;4.47;;
7320;SDS011;3701;49.346;8.798;2022-07-29T09:28:04;3.40;;;3.10;;
7320;SDS011;3701;49.346;8.798;2022-07-29T09:30:30;7.20;;;4.17;;
7320;SDS011;3701;49.346;8.798;2022-07-29T09:33:01;4.83;;;3.77;;
7320;SDS011;3701;49.346;8.798;2022-07-29T09:35:28;5.23;;;3.60;;
7320;SDS011;3701;49.346;8.798;2022-07-29T09:37:55;7.13;;;4.57;;
7320;SDS011;3701;49.346;8.798;2022-07-29T09:40:25;4.93;;;4.13;;
7320;SDS011;3701;49.346;8.798;2022-07-29T09:42:54;5.00;;;4.10;;
7320;SDS011;3701;49.346;8.798;2022-07-29T09:45:29;7.00;;;4.20;;
7320;SDS011;3701;49.346;8.798;2022-07-29T09:47:59;6.40;;;4.13;;
7320;SDS011;3701;49.346;8.798;2022-07-29T09:50:42;7.00;;;3.97;;
7320;SDS011;3701;49.346;8.798;2022-07-29T09:53:12;9.17;;;4.90;;
7320;SDS011;3701;49.346;8.798;2022-07-29T09:55:57;6.00;;;4.60;;
7320;SDS011;3701;49.346;8.798;2022-07-29T09:58:23;5.53;;;4.63;;
7320;SDS011;3701;49.346;8.798;2022-07-29T10:00:49;4.10;;;3.73;;
7320;SDS011;3701;49.346;8.798;2022-07-29T10:03:15;6.53;;;4.63;;
7320;SDS011;3701;49.346;8.798;2022-07-29T10:05:43;5.37;;;4.50;;
7320;SDS011;3701;49.346;8.798;2022-07-29T10:08:12;4.70;;;3.97;;
7320;SDS011;3701;49.346;8.798;2022-07-29T10:10:49;6.80;;;4.20;;
7320;SDS011;3701;49.346;8.798;2022-07-29T10:13:15;4.33;;;3.93;;
7320;SDS011;3701;49.346;8.798;2022-07-29T10:15:41;4.83;;;3.83;;
7320;SDS011;3701;49.346;8.798;2022-07-29T10:18:11;4.57;;;3.58;;
7320;SDS011;3701;49.346;8.798;2022-07-29T10:20:40;4.03;;;3.70;;
7320;SDS011;3701;49.346;8.798;2022-07-29T10:23:09;6.32;;;3.30;;
7320;SDS011;3701;49.346;8.798;2022-07-29T10:25:34;5.00;;;3.05;;
7320;SDS011;3701;49.346;8.798;2022-07-29T10:28:00;4.65;;;3.92;;
7320;SDS011;3701;49.346;8.798;2022-07-29T10:30:25;5.50;;;3.35;;
7320;SDS011;3701;49.346;8.798;2022-07-29T10:35:54;4.57;;;3.70;;
7320;SDS011;3701;49.346;8.798;2022-07-29T10:43:53;7.15;;;3.22;;
7320;SDS011;3701;49.346;8.798;2022-07-29T10:46:19;6.50;;;3.43;;
7320;SDS011;3701;49.346;8.798;2022-07-29T10:54:15;5.28;;;4.10;;
7320;SDS011;3701;49.346;8.798;2022-07-29T10:56:43;4.22;;;3.83;;
7320;SDS011;3701;49.346;8.798;2022-07-29T11:01:47;7.20;;;4.03;;
7320;SDS011;3701;49.346;8.798;2022-07-29T11:04:16;4.10;;;3.70;;
7320;SDS011;3701;49.346;8.798;2022-07-29T11:07:14;4.22;;;3.63;;
7320;SDS011;3701;49.346;8.798;2022-07-29T11:09:42;4.57;;;4.17;;
7320;SDS011;3701;49.346;8.798;2022-07-29T11:25:44;6.38;;;3.85;;
7320;SDS011;3701;49.346;8.798;2022-07-29T11:28:15;4.68;;;3.33;;
7320;SDS011;3701;49.346;8.798;2022-07-29T11:30:50;4.05;;;3.65;;
7320;SDS011;3701;49.346;8.798;2022-07-29T11:33:32;5.60;;;3.28;;
7320;SDS011;3701;49.346;8.798;2022-07-29T11:36:13;3.88;;;3.22;;
7320;SDS011;3701;49.346;8.798;2022-07-29T11:38:39;4.60;;;3.50;;
7320;SDS011;3701;49.346;8.798;2022-07-29T11:41:19;5.30;;;3.28;;
7320;SDS011;3701;49.346;8.798;2022-07-29T11:43:53;4.05;;;3.60;;
7320;SDS011;3701;49.346;8.798;2022-07-29T11:49:12;6.05;;;3.60;;
7320;SDS011;3701;49.346;8.798;2022-07-29T11:51:43;6.88;;;3.47;;
7320;SDS011;3701;49.346;8.798;2022-07-29T11:54:31;3.83;;;3.40;;
7320;SDS011;3701;49.346;8.798;2022-07-29T11:56:58;4.13;;;3.43;;
7320;SDS011;3701;49.346;8.798;2022-07-29T11:59:30;4.85;;;3.33;;
7320;SDS011;3701;49.346;8.798;2022-07-29T12:01:57;4.38;;;3.20;;
7320;SDS011;3701;49.346;8.798;2022-07-29T12:04:23;4.75;;;3.60;;
7320;SDS011;3701;49.346;8.798;2022-07-29T12:06:53;3.33;;;3.03;;
7320;SDS011;3701;49.346;8.798;2022-07-29T12:09:21;3.88;;;3.35;;
7320;SDS011;3701;49.346;8.798;2022-07-29T12:11:56;4.00;;;3.38;;
7320;SDS011;3701;49.346;8.798;2022-07-29T12:14:29;4.18;;;3.08;;
7320;SDS011;3701;49.346;8.798;2022-07-29T12:16:55;6.97;;;3.33;;
7320;SDS011;3701;49.346;8.798;2022-07-29T12:19:21;4.70;;;3.20;;
7320;SDS011;3701;49.346;8.798;2022-07-29T12:21:48;5.18;;;3.00;;
7320;SDS011;3701;49.346;8.798;2022-07-29T12:24:18;3.22;;;2.90;;
7320;SDS011;3701;49.346;8.798;2022-07-29T12:26:50;3.53;;;3.22;;
7320;SDS011;3701;49.346;8.798;2022-07-29T12:29:17;3.22;;;3.03;;
7320;SDS011;3701;49.346;8.798;2022-07-29T12:31:43;4.35;;;3.20;;
7320;SDS011;3701;49.346;8.798;2022-07-29T12:34:13;5.32;;;2.85;;
7320;SDS011;3701;49.346;8.798;2022-07-29T12:36:40;4.32;;;3.30;;
7320;SDS011;3701;49.346;8.798;2022-07-29T12:39:07;4.35;;;3.33;;
7320;SDS011;3701;49.346;8.798;2022-07-29T12:41:34;3.47;;;3.17;;
7320;SDS011;3701;49.346;8.798;2022-07-29T12:44:02;3.30;;;3.00;;
7320;SDS011;3701;49.346;8.798;2022-07-29T12:46:29;5.53;;;3.00;;
7320;SDS011;3701;49.346;8.798;2022-07-29T12:48:57;5.68;;;3.78;;
7320;SDS011;3701;49.346;8.798;2022-07-29T12:51:39;3.60;;;3.15;;
7320;SDS011;3701;49.346;8.798;2022-07-29T12:54:14;11.15;;;3.63;;
7320;SDS011;3701;49.346;8.798;2022-07-29T12:56:43;6.22;;;3.08;;
7320;SDS011;3701;49.346;8.798;2022-07-29T13:01:46;6.90;;;4.03;;
7320;SDS011;3701;49.346;8.798;2022-07-29T13:04:32;4.68;;;3.03;;
7320;SDS011;3701;49.346;8.798;2022-07-29T13:07:05;10.38;;;3.42;;
7320;SDS011;3701;49.346;8.798;2022-07-29T13:09:41;3.72;;;2.72;;
7320;SDS011;3701;49.346;8.798;2022-07-29T13:12:12;14.00;;;3.63;;
7320;SDS011;3701;49.346;8.798;2022-07-29T13:14:39;4.60;;;3.00;;
7320;SDS011;3701;49.346;8.798;2022-07-29T13:19:50;4.70;;;2.80;;
7320;SDS011;3701;49.346;8.798;2022-07-29T13:22:22;4.73;;;2.97;;
7320;SDS011;3701;49.346;8.798;2022-07-29T13:24:52;4.00;;;2.80;;
7320;SDS011;3701;49.346;8.798;2022-07-29T13:27:23;4.27;;;2.90;;
7320;SDS011;3701;49.346;8.798;2022-07-29T13:29:56;5.93;;;3.33;;
7320;SDS011;3701;49.346;8.798;2022-07-29T13:32:25;3.37;;;2.97;;
7320;SDS011;3701;49.346;8.798;2022-07-29T13:34:51;5.53;;;3.30;;
7320;SDS011;3701;49.346;8.798;2022-07-29T13:37:17;7.20;;;3.50;;
7320;SDS011;3701;49.346;8.798;2022-07-29T13:39:43;6.63;;;3.33;;
7320;SDS011;3701;49.346;8.798;2022-07-29T13:42:12;5.23;;;3.60;;
7320;SDS011;3701;49.346;8.798;2022-07-29T13:44:40;3.67;;;3.10;;
7320;SDS011;3701;49.346;8.798;2022-07-29T13:47:07;4.30;;;3.40;;
7320;SDS011;3701;49.346;8.798;2022-07-29T13:49:33;7.33;;;2.97;;
7320;SDS011;3701;49.346;8.798;2022-07-29T13:52:01;7.93;;;3.50;;
7320;SDS011;3701;49.346;8.798;2022-07-29T13:54:28;8.30;;;3.73;;
7320;SDS011;3701;49.346;8.798;2022-07-29T13:56:56;3.40;;;3.10;;
7320;SDS011;3701;49.346;8.798;2022-07-29T13:59:21;4.83;;;3.00;;
7320;SDS011;3701;49.346;8.798;2022-07-29T14:01:47;9.90;;;3.47;;
7320;SDS011;3701;49.346;8.798;2022-07-29T14:04:14;4.70;;;3.40;;
7320;SDS011;3701;49.346;8.798;2022-07-29T14:06:40;6.60;;;3.80;;
7320;SDS011;3701;49.346;8.798;2022-07-29T14:09:11;6.17;;;3.60;;
7320;SDS011;3701;49.346;8.798;2022-07-29T14:11:36;3.50;;;3.17;;
7320;SDS011;3701;49.346;8.798;2022-07-29T14:14:03;6.30;;;3.80;;
7320;SDS011;3701;49.346;8.798;2022-07-29T14:16:28;4.00;;;3.57;;
7320;SDS011;3701;49.346;8.798;2022-07-29T14:18:54;3.87;;;3.40;;
7320;SDS011;3701;49.346;8.798;2022-07-29T14:21:19;4.07;;;3.23;;
7320;SDS011;3701;49.346;8.798;2022-07-29T14:23:44;3.23;;;2.93;;
7320;SDS011;3701;49.346;8.798;2022-07-29T14:26:10;4.70;;;3.30;;
7320;SDS011;3701;49.346;8.798;2022-07-29T14:28:35;4.70;;;3.70;;
7320;SDS011;3701;49.346;8.798;2022-07-29T14:31:00;4.73;;;3.50;;
7320;SDS011;3701;49.346;8.798;2022-07-29T14:33:28;4.90;;;3.67;;
7320;SDS011;3701;49.346;8.798;2022-07-29T14:35:56;5.80;;;3.10;;
7320;SDS011;3701;49.346;8.798;2022-07-29T14:38:23;3.93;;;2.83;;
7320;SDS011;3701;49.346;8.798;2022-07-29T14:40:49;4.20;;;3.03;;
7320;SDS011;3701;49.346;8.798;2022-07-29T14:43:14;3.63;;;3.00;;
7320;SDS011;3701;49.346;8.798;2022-07-29T14:45:44;3.50;;;2.60;;
7320;SDS011;3701;49.346;8.798;2022-07-29T14:48:10;5.10;;;3.17;;
7320;SDS011;3701;49.346;8.798;2022-07-29T14:50:38;9.53;;;2.70;;
7320;SDS011;3701;49.346;8.798;2022-07-29T14:53:06;2.97;;;2.50;;
7320;SDS011;3701;49.346;8.798;2022-07-29T14:55:31;2.70;;;2.40;;
7320;SDS011;3701;49.346;8.798;2022-07-29T14:58:00;2.63;;;2.40;;
7320;SDS011;3701;49.346;8.798;2022-07-29T15:00:26;4.93;;;2.87;;
7320;SDS011;3701;49.346;8.798;2022-07-29T15:02:51;4.77;;;2.63;;
7320;SDS011;3701;49.346;8.798;2022-07-29T15:05:19;3.20;;;2.90;;
7320;SDS011;3701;49.346;8.798;2022-07-29T15:07:44;8.93;;;2.60;;
7320;SDS011;3701;49.346;8.798;2022-07-29T15:10:12;2.90;;;2.67;;
7320;SDS011;3701;49.346;8.798;2022-07-29T15:12:40;7.60;;;2.63;;
7320;SDS011;3701;49.346;8.798;2022-07-29T15:15:10;4.40;;;2.60;;
7320;SDS011;3701;49.346;8.798;2022-07-29T15:17:36;3.70;;;2.53;;
7320;SDS011;3701;49.346;8.798;2022-07-29T15:20:01;5.73;;;2.47;;
7320;SDS011;3701;49.346;8.798;2022-07-29T15:22:30;4.43;;;2.47;;
7320;SDS011;3701;49.346;8.798;2022-07-29T15:25:02;4.87;;;2.30;;
7320;SDS011;3701;49.346;8.798;2022-07-29T15:27:27;3.40;;;2.00;;
7320;SDS011;3701;49.346;8.798;2022-07-29T15:29:52;2.50;;;2.10;;
7320;SDS011;3701;49.346;8.798;2022-07-29T15:32:20;3.50;;;2.40;;
7320;SDS011;3701;49.346;8.798;2022-07-29T15:34:45;2.90;;;2.20;;
7320;SDS011;3701;49.346;8.798;2022-07-29T15:37:14;4.87;;;2.20;;
7320;SDS011;3701;49.346;8.798;2022-07-29T15:39:40;4.30;;;2.20;;
7320;SDS011;3701;49.346;8.798;2022-07-29T15:42:05;2.93;;;2.00;;
7320;SDS011;3701;49.346;8.798;2022-07-29T15:44:33;3.20;;;2.27;;
7320;SDS011;3701;49.346;8.798;2022-07-29T15:47:01;3.63;;;1.80;;
7320;SDS011;3701;49.346;8.798;2022-07-29T15:49:33;2.20;;;1.90;;
7320;SDS011;3701;49.346;8.798;2022-07-29T15:52:08;2.30;;;1.90;;
7320;SDS011;3701;49.346;8.798;2022-07-29T15:54:37;4.07;;;1.83;;
7320;SDS011;3701;49.346;8.798;2022-07-29T15:57:05;6.23;;;1.90;;
7320;SDS011;3701;49.346;8.798;2022-07-29T15:59:31;3.40;;;1.73;;
7320;SDS011;3701;49.346;8.798;2022-07-29T16:01:59;9.13;;;1.97;;
7320;SDS011;3701;49.346;8.798;2022-07-29T16:04:25;3.50;;;1.70;;
7320;SDS011;3701;49.346;8.798;2022-07-29T16:06:51;2.20;;;1.50;;
7320;SDS011;3701;49.346;8.798;2022-07-29T16:09:21;4.83;;;1.67;;
7320;SDS011;3701;49.346;8.798;2022-07-29T16:11:47;3.60;;;1.87;;
7320;SDS011;3701;49.346;8.798;2022-07-29T16:14:14;2.20;;;1.50;;
7320;SDS011;3701;49.346;8.798;2022-07-29T16:16:40;3.53;;;1.53;;
7320;SDS011;3701;49.346;8.798;2022-07-29T16:19:06;3.53;;;1.77;;